Time;durP1;ratioP1;P1;durP2;ratioP2;P2;SDS_P1;SDS_P2;PMS_P1;PMS_P2;Temp;Humidity;BMP_temperature;BMP_pressure;BME280_temperature;BME280_humidity;BME280_pressure;Samples;Min_cycle;Max_cycle;Signal;HPM_P1;HPM_P2
2023/09/05 00:01:50;;;;;;;8.75;5.90;;;;;;;;;;5020113;28;20230;-72
2023/09/05 00:04:15;;;;;;;7.43;6.63;;;;;;;;;;5009617;28;20203;-73
2023/09/05 00:06:41;;;;;;;7.72;6.10;;;;;;;;;;5021237;28;20194;-73
2023/09/05 00:09:06;;;;;;;7.60;6.05;;;;;;;;;;5027350;28;20186;-72
2023/09/05 00:11:33;;;;;;;6.85;5.80;;;;;;;;;;5024011;28;20213;-72
2023/09/05 00:14:00;;;;;;;8.27;5.78;;;;;;;;;;5024552;28;20230;-72
2023/09/05 00:16:27;;;;;;;7.97;5.88;;;;;;;;;;5018964;28;20661;-72
2023/09/05 00:18:52;;;;;;;7.88;6.20;;;;;;;;;;5029201;28;20198;-72
2023/09/05 00:21:20;;;;;;;8.45;6.15;;;;;;;;;;5013866;28;20488;-72
2023/09/05 00:23:46;;;;;;;5.93;5.22;;;;;;;;;;5023687;28;20547;-73
2023/09/05 00:26:12;;;;;;;9.95;6.50;;;;;;;;;;5029825;28;20194;-73
2023/09/05 00:28:44;;;;;;;8.85;6.10;;;;;;;;;;5019368;28;20194;-73
2023/09/05 00:31:11;;;;;;;7.40;6.13;;;;;;;;;;5026131;28;20190;-73
2023/09/05 00:33:36;;;;;;;9.57;6.20;;;;;;;;;;5029187;28;20665;-72
2023/09/05 00:36:03;;;;;;;9.45;6.40;;;;;;;;;;5027909;28;20336;-73
2023/09/05 00:38:29;;;;;;;7.72;5.95;;;;;;;;;;5024403;28;20272;-73
2023/09/05 00:40:55;;;;;;;9.60;6.47;;;;;;;;;;5018870;28;20253;-73
2023/09/05 00:43:21;;;;;;;8.45;6.55;;;;;;;;;;5023132;28;20227;-72
2023/09/05 00:45:52;;;;;;;7.22;6.30;;;;;;;;;;5020704;28;20576;-72
2023/09/05 00:48:27;;;;;;;11.75;7.05;;;;;;;;;;5026112;28;20194;-72
2023/09/05 00:50:58;;;;;;;9.18;6.90;;;;;;;;;;5025201;28;20193;-72
2023/09/05 00:53:25;;;;;;;7.75;6.35;;;;;;;;;;5027482;28;20216;-72
2023/09/05 00:55:51;;;;;;;9.80;7.18;;;;;;;;;;5019328;28;20289;-72
2023/09/05 00:58:17;;;;;;;10.50;7.18;;;;;;;;;;5029149;28;20244;-72
2023/09/05 01:00:42;;;;;;;9.50;6.60;;;;;;;;;;5020279;28;20186;-72
2023/09/05 01:03:08;;;;;;;10.38;6.63;;;;;;;;;;5029067;28;20193;-70
2023/09/05 01:05:36;;;;;;;7.57;6.25;;;;;;;;;;5020944;28;20224;-72
2023/09/05 01:08:17;;;;;;;8.63;6.38;;;;;;;;;;5019907;28;20368;-72
2023/09/05 01:10:54;;;;;;;7.65;6.78;;;;;;;;;;5028604;28;20189;-73
2023/09/05 01:13:25;;;;;;;7.85;6.40;;;;;;;;;;5028618;28;20196;-72
2023/09/05 01:15:51;;;;;;;9.23;6.93;;;;;;;;;;5029295;28;20279;-72
2023/09/05 01:18:16;;;;;;;9.35;7.40;;;;;;;;;;5026176;28;20566;-72
2023/09/05 01:20:54;;;;;;;11.73;7.57;;;;;;;;;;5022738;28;20202;-72
2023/09/05 01:23:24;;;;;;;6.80;6.10;;;;;;;;;;5023208;28;20610;-72
2023/09/05 01:25:50;;;;;;;8.00;7.20;;;;;;;;;;5040489;28;20321;-72
2023/09/05 01:28:16;;;;;;;7.10;6.40;;;;;;;;;;5019578;28;20186;-72
2023/09/05 01:30:43;;;;;;;8.10;7.25;;;;;;;;;;5026028;28;20252;-72
2023/09/05 01:33:11;;;;;;;12.65;7.38;;;;;;;;;;5045854;28;20186;-72
2023/09/05 01:35:36;;;;;;;9.48;7.80;;;;;;;;;;5022897;28;20195;-72
2023/09/05 01:38:02;;;;;;;10.43;7.65;;;;;;;;;;5031233;28;20193;-72
2023/09/05 01:40:27;;;;;;;8.77;7.88;;;;;;;;;;5025850;28;20194;-72
2023/09/05 01:42:52;;;;;;;8.82;6.80;;;;;;;;;;5030522;28;20317;-71
2023/09/05 01:45:18;;;;;;;10.88;7.20;;;;;;;;;;5013984;28;20225;-72
2023/09/05 01:47:43;;;;;;;9.85;7.03;;;;;;;;;;5030125;28;20202;-73
2023/09/05 01:50:08;;;;;;;8.95;7.97;;;;;;;;;;5030681;28;20206;-73
2023/09/05 01:52:34;;;;;;;10.30;8.05;;;;;;;;;;5027946;28;20225;-72
2023/09/05 01:54:59;;;;;;;11.80;9.07;;;;;;;;;;5029019;28;20194;-72
2023/09/05 01:57:26;;;;;;;11.48;8.50;;;;;;;;;;5019029;28;20199;-73
2023/09/05 01:59:52;;;;;;;11.52;8.48;;;;;;;;;;5043380;28;20507;-73
2023/09/05 02:02:17;;;;;;;9.95;8.02;;;;;;;;;;5012150;28;20197;-72
2023/09/05 02:04:43;;;;;;;11.05;8.27;;;;;;;;;;5025167;28;20308;-72
2023/09/05 02:07:09;;;;;;;10.45;7.75;;;;;;;;;;5032322;28;20189;-72
2023/09/05 02:09:35;;;;;;;9.07;8.13;;;;;;;;;;5032118;28;20201;-72
2023/09/05 02:12:01;;;;;;;10.73;8.10;;;;;;;;;;5033428;28;20237;-72
2023/09/05 02:14:26;;;;;;;10.27;8.73;;;;;;;;;;5019367;28;20666;-72
2023/09/05 02:16:52;;;;;;;10.20;8.98;;;;;;;;;;5014478;28;20269;-72
2023/09/05 02:19:19;;;;;;;11.13;8.98;;;;;;;;;;5023200;28;20554;-72
2023/09/05 02:21:44;;;;;;;9.82;8.82;;;;;;;;;;5019550;28;20265;-72
2023/09/05 02:24:10;;;;;;;10.82;8.25;;;;;;;;;;5025178;28;20387;-72
2023/09/05 02:26:37;;;;;;;9.82;8.77;;;;;;;;;;5014400;28;20261;-72
2023/09/05 02:29:02;;;;;;;10.15;8.52;;;;;;;;;;5012689;28;20190;-72
2023/09/05 02:31:28;;;;;;;9.85;8.52;;;;;;;;;;5031091;28;20187;-72
2023/09/05 02:33:53;;;;;;;9.88;8.48;;;;;;;;;;5031909;28;20187;-72
2023/09/05 02:36:19;;;;;;;12.32;8.73;;;;;;;;;;5025643;28;20654;-72
2023/09/05 02:38:45;;;;;;;9.43;8.02;;;;;;;;;;5034959;28;20199;-73
2023/09/05 02:41:15;;;;;;;12.82;8.95;;;;;;;;;;5022599;28;20210;-72
2023/09/05 02:43:40;;;;;;;10.85;8.82;;;;;;;;;;5029402;28;20256;-72
2023/09/05 02:46:07;;;;;;;10.25;8.68;;;;;;;;;;5026293;28;20634;-73
2023/09/05 02:48:35;;;;;;;13.20;9.07;;;;;;;;;;5043388;28;20190;-72
2023/09/05 02:51:02;;;;;;;13.40;8.82;;;;;;;;;;5025690;28;20701;-73
2023/09/05 02:53:28;;;;;;;10.73;9.02;;;;;;;;;;5045824;28;20658;-72
2023/09/05 02:55:53;;;;;;;10.68;8.50;;;;;;;;;;5028280;28;20255;-72
2023/09/05 02:58:19;;;;;;;11.65;9.18;;;;;;;;;;5030799;28;20194;-72
2023/09/05 03:00:47;;;;;;;9.73;8.75;;;;;;;;;;5022874;28;21029;-72
2023/09/05 03:03:13;;;;;;;13.30;9.02;;;;;;;;;;5028133;28;20191;-73
2023/09/05 03:05:38;;;;;;;12.18;9.07;;;;;;;;;;5030444;28;20202;-73
2023/09/05 03:08:06;;;;;;;11.38;8.95;;;;;;;;;;5023414;28;20317;-71
2023/09/05 03:10:31;;;;;;;13.90;8.63;;;;;;;;;;5031344;28;20201;-72
2023/09/05 03:12:57;;;;;;;14.90;9.70;;;;;;;;;;5029559;28;20186;-72
2023/09/05 03:15:23;;;;;;;10.05;8.82;;;;;;;;;;5025870;28;20187;-72
2023/09/05 03:17:48;;;;;;;11.45;8.88;;;;;;;;;;5031828;28;20238;-72
2023/09/05 03:20:15;;;;;;;10.52;8.95;;;;;;;;;;5046115;28;20220;-71
2023/09/05 03:22:41;;;;;;;13.77;9.18;;;;;;;;;;5028614;28;20570;-72
2023/09/05 03:25:06;;;;;;;12.35;8.93;;;;;;;;;;5045125;28;20224;-71
2023/09/05 03:27:32;;;;;;;9.88;8.88;;;;;;;;;;5021369;28;20190;-71
2023/09/05 03:29:57;;;;;;;10.10;8.90;;;;;;;;;;5032465;28;20282;-73
2023/09/05 03:32:22;;;;;;;10.55;8.50;;;;;;;;;;5028620;28;20190;-73
2023/09/05 03:34:48;;;;;;;12.20;8.95;;;;;;;;;;5022266;28;20182;-72
2023/09/05 03:37:15;;;;;;;12.45;8.85;;;;;;;;;;5028346;28;20503;-72
2023/09/05 03:39:41;;;;;;;10.80;9.00;;;;;;;;;;5021266;28;20642;-73
2023/09/05 03:42:06;;;;;;;15.85;10.95;;;;;;;;;;5024704;28;20189;-72
2023/09/05 03:44:32;;;;;;;11.27;10.18;;;;;;;;;;5026589;28;20353;-72
2023/09/05 03:46:57;;;;;;;15.45;9.98;;;;;;;;;;5017210;28;20510;-72
2023/09/05 03:49:23;;;;;;;13.27;10.85;;;;;;;;;;5016148;28;20186;-72
2023/09/05 03:51:48;;;;;;;13.13;10.55;;;;;;;;;;5029519;28;20585;-73
2023/09/05 03:54:13;;;;;;;14.48;10.98;;;;;;;;;;5022012;28;20189;-73
2023/09/05 03:56:39;;;;;;;13.38;11.10;;;;;;;;;;5028455;28;20903;-73
2023/09/05 03:59:04;;;;;;;15.38;10.68;;;;;;;;;;5016747;28;20277;-72
2023/09/05 04:01:29;;;;;;;12.82;11.13;;;;;;;;;;5029637;28;20204;-73
2023/09/05 04:03:55;;;;;;;11.43;10.25;;;;;;;;;;5028209;28;20376;-74
2023/09/05 04:06:20;;;;;;;13.38;10.60;;;;;;;;;;5023318;28;20316;-71
2023/09/05 04:08:45;;;;;;;11.10;9.93;;;;;;;;;;5020268;28;20248;-71
2023/09/05 04:11:11;;;;;;;11.68;9.52;;;;;;;;;;5020203;28;20193;-71
2023/09/05 04:13:36;;;;;;;14.23;10.20;;;;;;;;;;5028257;28;20244;-72
2023/09/05 04:16:06;;;;;;;15.50;10.38;;;;;;;;;;5023282;28;20609;-73
2023/09/05 04:18:32;;;;;;;13.65;10.55;;;;;;;;;;5014013;28;20671;-72
2023/09/05 04:20:58;;;;;;;17.05;10.13;;;;;;;;;;5028539;28;20277;-72
2023/09/05 04:23:24;;;;;;;15.57;11.20;;;;;;;;;;5017537;28;20675;-73
2023/09/05 04:25:56;;;;;;;15.50;10.65;;;;;;;;;;5018530;28;20263;-72
2023/09/05 04:28:21;;;;;;;14.63;11.05;;;;;;;;;;5016186;28;20195;-72
2023/09/05 04:30:46;;;;;;;13.73;10.77;;;;;;;;;;5019800;28;20205;-72
2023/09/05 04:33:12;;;;;;;12.40;11.10;;;;;;;;;;5005661;28;20296;-72
2023/09/05 04:35:40;;;;;;;14.27;10.85;;;;;;;;;;5021949;28;20708;-71
2023/09/05 04:38:05;;;;;;;11.68;10.48;;;;;;;;;;5025029;28;20667;-72
2023/09/05 04:40:31;;;;;;;12.65;10.50;;;;;;;;;;5019739;28;20270;-73
2023/09/05 04:42:56;;;;;;;15.35;11.68;;;;;;;;;;5018533;28;20689;-71
2023/09/05 04:45:21;;;;;;;14.75;11.02;;;;;;;;;;5021837;28;20210;-72
2023/09/05 04:47:47;;;;;;;14.60;11.52;;;;;;;;;;5024492;28;20318;-72
2023/09/05 04:50:12;;;;;;;16.58;11.25;;;;;;;;;;5020681;28;20190;-72
2023/09/05 04:52:37;;;;;;;12.93;11.38;;;;;;;;;;5017333;28;20194;-71
2023/09/05 04:55:03;;;;;;;15.65;11.68;;;;;;;;;;5024901;28;20680;-73
2023/09/05 04:57:28;;;;;;;15.48;11.95;;;;;;;;;;5027694;28;20201;-72
2023/09/05 04:59:59;;;;;;;13.10;10.25;;;;;;;;;;5024470;28;20265;-72
2023/09/05 05:02:25;;;;;;;18.30;11.18;;;;;;;;;;5014599;28;20553;-72
2023/09/05 05:04:50;;;;;;;15.75;10.43;;;;;;;;;;5022077;28;20218;-72
2023/09/05 05:07:16;;;;;;;14.02;10.70;;;;;;;;;;5019191;28;20189;-72
2023/09/05 05:09:42;;;;;;;13.52;10.82;;;;;;;;;;5018426;28;20186;-71
2023/09/05 05:12:08;;;;;;;12.60;10.70;;;;;;;;;;5025565;28;20182;-71
2023/09/05 05:14:33;;;;;;;13.93;10.95;;;;;;;;;;5027391;28;20259;-72
2023/09/05 05:16:59;;;;;;;12.85;11.18;;;;;;;;;;5025625;28;20288;-71
2023/09/05 05:19:24;;;;;;;14.27;11.25;;;;;;;;;;5016584;28;20197;-71
2023/09/05 05:21:50;;;;;;;17.42;12.13;;;;;;;;;;5017884;28;20265;-72
2023/09/05 05:24:16;;;;;;;14.32;12.45;;;;;;;;;;5015328;28;20209;-72
2023/09/05 05:26:42;;;;;;;14.82;12.15;;;;;;;;;;5019915;28;20198;-73
2023/09/05 05:29:07;;;;;;;14.75;12.18;;;;;;;;;;5017852;28;20551;-72
2023/09/05 05:31:33;;;;;;;13.57;11.77;;;;;;;;;;5024392;28;20194;-72
2023/09/05 05:33:59;;;;;;;13.27;11.88;;;;;;;;;;5024257;28;20898;-73
2023/09/05 05:36:25;;;;;;;13.48;11.38;;;;;;;;;;5011270;28;20190;-72
2023/09/05 05:38:50;;;;;;;14.40;11.27;;;;;;;;;;5011105;28;20533;-71
2023/09/05 05:41:16;;;;;;;16.58;12.60;;;;;;;;;;5011242;28;20666;-71
2023/09/05 05:43:41;;;;;;;16.45;11.55;;;;;;;;;;5018976;28;20227;-72
2023/09/05 05:46:09;;;;;;;17.98;11.90;;;;;;;;;;5025213;28;20571;-72
2023/09/05 05:48:35;;;;;;;13.30;11.15;;;;;;;;;;5008996;28;20198;-72
2023/09/05 05:51:00;;;;;;;12.57;11.30;;;;;;;;;;5019743;28;20191;-72
2023/09/05 05:53:26;;;;;;;12.80;11.25;;;;;;;;;;5026971;28;20193;-72
2023/09/05 05:55:51;;;;;;;13.20;10.90;;;;;;;;;;5023528;28;20191;-72
2023/09/05 05:58:16;;;;;;;11.25;10.15;;;;;;;;;;5021490;28;20509;-72
2023/09/05 06:00:45;;;;;;;13.98;10.35;;;;;;;;;;5016673;28;20198;-72
2023/09/05 06:03:11;;;;;;;12.95;9.75;;;;;;;;;;5023449;28;20178;-72
2023/09/05 06:05:37;;;;;;;10.60;9.50;;;;;;;;;;5023178;28;20209;-71
2023/09/05 06:08:03;;;;;;;9.50;8.57;;;;;;;;;;5042457;28;20194;-72
2023/09/05 06:10:28;;;;;;;11.50;9.55;;;;;;;;;;5019103;28;20201;-71
2023/09/05 06:12:54;;;;;;;11.10;9.82;;;;;;;;;;5019639;28;20202;-72
2023/09/05 06:15:19;;;;;;;10.05;8.90;;;;;;;;;;5016856;28;20657;-72
2023/09/05 06:17:44;;;;;;;11.23;8.55;;;;;;;;;;5024853;28;20271;-72
2023/09/05 06:20:11;;;;;;;11.40;8.50;;;;;;;;;;5043886;28;20201;-72
2023/09/05 06:22:38;;;;;;;11.88;8.43;;;;;;;;;;5029634;28;20200;-72
2023/09/05 06:25:05;;;;;;;11.55;8.73;;;;;;;;;;5027440;28;20769;-71
2023/09/05 06:27:31;;;;;;;9.88;7.60;;;;;;;;;;5020905;28;20198;-72
2023/09/05 06:29:56;;;;;;;9.23;7.60;;;;;;;;;;5020648;28;20236;-73
2023/09/05 06:32:21;;;;;;;10.60;7.80;;;;;;;;;;5025050;28;20630;-72
2023/09/05 06:34:47;;;;;;;9.98;7.65;;;;;;;;;;5010664;28;20272;-72
2023/09/05 06:37:12;;;;;;;8.88;7.30;;;;;;;;;;5020232;28;20194;-72
2023/09/05 06:39:38;;;;;;;9.38;6.57;;;;;;;;;;5025524;28;20286;-72
2023/09/05 06:42:04;;;;;;;7.25;6.45;;;;;;;;;;5016929;28;20202;-73
2023/09/05 06:44:31;;;;;;;9.85;6.47;;;;;;;;;;5044558;28;20715;-72
2023/09/05 06:46:56;;;;;;;9.00;5.68;;;;;;;;;;5029837;28;20710;-72
2023/09/05 06:49:21;;;;;;;7.95;5.90;;;;;;;;;;5029772;28;20380;-72
2023/09/05 06:51:47;;;;;;;8.02;5.70;;;;;;;;;;5024787;28;20593;-72
2023/09/05 06:54:13;;;;;;;9.95;5.95;;;;;;;;;;5025478;28;20537;-72
2023/09/05 06:56:38;;;;;;;8.98;5.35;;;;;;;;;;5013667;28;20201;-72
2023/09/05 06:59:04;;;;;;;8.18;5.20;;;;;;;;;;5025859;28;20691;-72
2023/09/05 07:01:32;;;;;;;8.30;4.97;;;;;;;;;;5015877;28;20673;-72
2023/09/05 07:03:58;;;;;;;5.35;4.82;;;;;;;;;;5025441;28;20221;-72
2023/09/05 07:06:23;;;;;;;5.85;4.22;;;;;;;;;;5016838;28;20191;-72
2023/09/05 07:08:48;;;;;;;9.02;4.75;;;;;;;;;;5026315;28;20238;-72
2023/09/05 07:11:14;;;;;;;6.10;4.50;;;;;;;;;;5023805;28;20575;-72
2023/09/05 07:13:39;;;;;;;5.78;4.22;;;;;;;;;;5018547;28;20186;-72
2023/09/05 07:16:04;;;;;;;7.40;4.47;;;;;;;;;;5030205;28;20305;-72
2023/09/05 07:18:30;;;;;;;6.25;4.22;;;;;;;;;;5027133;28;20287;-72
2023/09/05 07:20:55;;;;;;;6.43;4.35;;;;;;;;;;5029362;28;20213;-72
2023/09/05 07:23:20;;;;;;;10.90;4.13;;;;;;;;;;5024798;28;20186;-72
2023/09/05 07:25:46;;;;;;;5.40;4.15;;;;;;;;;;5018946;28;20215;-72
2023/09/05 07:28:11;;;;;;;5.80;3.65;;;;;;;;;;5024522;28;20190;-72
2023/09/05 07:30:36;;;;;;;4.85;3.75;;;;;;;;;;5019327;28;20615;-73
2023/09/05 07:33:02;;;;;;;6.63;3.40;;;;;;;;;;5008216;28;20285;-72
2023/09/05 07:35:28;;;;;;;6.85;3.97;;;;;;;;;;5027029;28;20600;-73
2023/09/05 07:37:53;;;;;;;4.38;3.42;;;;;;;;;;5023459;28;20197;-73
2023/09/05 07:40:18;;;;;;;5.65;3.35;;;;;;;;;;5019198;28;20635;-72
2023/09/05 07:42:44;;;;;;;7.13;3.55;;;;;;;;;;5027585;28;20575;-73
2023/09/05 07:45:10;;;;;;;5.97;3.25;;;;;;;;;;5028758;28;20213;-74
2023/09/05 07:47:35;;;;;;;3.05;2.75;;;;;;;;;;5029857;28;20205;-72
2023/09/05 07:50:01;;;;;;;6.07;2.65;;;;;;;;;;5014587;28;20190;-72
2023/09/05 07:52:27;;;;;;;3.08;2.55;;;;;;;;;;5030159;28;20187;-72
2023/09/05 07:54:52;;;;;;;4.05;3.20;;;;;;;;;;5028624;28;20174;-72
2023/09/05 07:57:18;;;;;;;4.57;2.65;;;;;;;;;;5023789;28;20414;-73
2023/09/05 07:59:44;;;;;;;5.32;2.47;;;;;;;;;;5019943;28;20206;-74
2023/09/05 08:02:10;;;;;;;2.78;2.40;;;;;;;;;;5016909;28;20197;-73
2023/09/05 08:04:37;;;;;;;4.57;2.55;;;;;;;;;;5016328;28;20257;-73
2023/09/05 08:07:03;;;;;;;3.63;2.40;;;;;;;;;;5027113;28;20635;-73
2023/09/05 08:09:28;;;;;;;4.30;2.25;;;;;;;;;;5018531;28;20273;-74
2023/09/05 08:11:53;;;;;;;3.53;2.53;;;;;;;;;;5021374;28;20217;-73
2023/09/05 08:14:19;;;;;;;4.65;2.40;;;;;;;;;;5024546;28;20605;-74
2023/09/05 08:16:44;;;;;;;4.07;2.22;;;;;;;;;;5019145;28;20194;-74
2023/09/05 08:19:09;;;;;;;7.80;2.40;;;;;;;;;;5027778;28;20637;-74
2023/09/05 08:21:35;;;;;;;4.18;2.45;;;;;;;;;;5024059;28;20197;-73
2023/09/05 08:24:01;;;;;;;4.60;2.20;;;;;;;;;;5023024;28;20218;-72
2023/09/05 08:26:26;;;;;;;2.60;2.22;;;;;;;;;;5016775;28;20185;-72
2023/09/05 08:28:52;;;;;;;3.53;2.10;;;;;;;;;;5037723;28;20657;-72
2023/09/05 08:31:18;;;;;;;3.92;2.25;;;;;;;;;;5022199;28;20194;-72
2023/09/05 08:33:43;;;;;;;3.17;2.05;;;;;;;;;;5018095;28;20197;-73
2023/09/05 08:36:09;;;;;;;2.92;2.00;;;;;;;;;;5026641;28;20692;-72
2023/09/05 08:38:40;;;;;;;3.35;2.05;;;;;;;;;;5019898;28;20630;-73
2023/09/05 08:41:06;;;;;;;3.00;1.77;;;;;;;;;;5021406;28;20182;-73
2023/09/05 08:43:32;;;;;;;2.55;1.70;;;;;;;;;;5025592;28;20569;-73
2023/09/05 08:46:03;;;;;;;2.65;2.00;;;;;;;;;;5017757;28;20206;-74
2023/09/05 08:48:29;;;;;;;4.53;1.90;;;;;;;;;;5006891;28;20200;-73
2023/09/05 08:50:55;;;;;;;2.83;1.85;;;;;;;;;;5019528;28;20182;-73
2023/09/05 08:53:28;;;;;;;4.05;2.20;;;;;;;;;;5021030;28;20194;-72
2023/09/05 08:55:55;;;;;;;4.53;2.38;;;;;;;;;;5033030;28;20993;-73
2023/09/05 08:58:21;;;;;;;2.00;1.75;;;;;;;;;;5021466;28;20197;-73
2023/09/05 09:00:47;;;;;;;4.18;1.63;;;;;;;;;;5025824;28;20263;-72
2023/09/05 09:03:12;;;;;;;2.35;1.85;;;;;;;;;;5018366;28;20285;-72
2023/09/05 09:05:38;;;;;;;3.13;1.90;;;;;;;;;;5024118;28;20218;-72
2023/09/05 09:08:04;;;;;;;3.13;2.00;;;;;;;;;;5010548;28;20822;-73
2023/09/05 09:10:29;;;;;;;2.75;2.00;;;;;;;;;;5037511;28;20218;-73
2023/09/05 09:13:14;;;;;;;2.95;1.80;;;;;;;;;;5023724;28;20209;-73
2023/09/05 09:15:43;;;;;;;3.85;1.85;;;;;;;;;;5032014;28;20335;-73
2023/09/05 09:18:12;;;;;;;3.13;2.03;;;;;;;;;;5023475;28;20214;-73
2023/09/05 09:20:42;;;;;;;3.72;2.20;;;;;;;;;;5010823;28;20194;-73
2023/09/05 09:23:10;;;;;;;3.70;1.88;;;;;;;;;;5020976;28;20676;-73
2023/09/05 09:25:46;;;;;;;3.47;2.10;;;;;;;;;;5019357;28;20229;-73
2023/09/05 09:28:28;;;;;;;4.22;2.10;;;;;;;;;;5016403;28;20529;-73
2023/09/05 09:30:56;;;;;;;3.28;1.75;;;;;;;;;;5026339;28;20202;-73
2023/09/05 09:33:22;;;;;;;2.60;1.85;;;;;;;;;;5017819;28;20271;-74
2023/09/05 09:35:59;;;;;;;4.57;2.30;;;;;;;;;;5006385;28;20174;-73
2023/09/05 09:38:26;;;;;;;2.85;1.80;;;;;;;;;;5008752;28;20194;-75
2023/09/05 09:40:51;;;;;;;2.35;1.80;;;;;;;;;;5017836;28;20342;-73
2023/09/05 09:43:17;;;;;;;4.03;1.60;;;;;;;;;;5025573;28;20543;-73
2023/09/05 09:45:42;;;;;;;5.40;1.98;;;;;;;;;;5027130;28;20573;-73
2023/09/05 09:48:10;;;;;;;5.32;1.58;;;;;;;;;;5017769;28;20186;-74
2023/09/05 09:50:36;;;;;;;2.58;1.85;;;;;;;;;;5027382;28;20277;-74
2023/09/05 09:53:04;;;;;;;4.65;1.60;;;;;;;;;;5032248;28;20634;-74
2023/09/05 09:55:32;;;;;;;2.92;1.95;;;;;;;;;;5031161;28;20212;-73
2023/09/05 09:58:08;;;;;;;4.38;1.67;;;;;;;;;;5013987;28;20190;-74
2023/09/05 10:00:35;;;;;;;3.22;1.88;;;;;;;;;;5031193;28;20221;-73
2023/09/05 10:03:04;;;;;;;2.17;1.63;;;;;;;;;;5018057;28;20246;-73
2023/09/05 10:05:30;;;;;;;2.33;1.70;;;;;;;;;;5023993;28;20289;-73
2023/09/05 10:07:57;;;;;;;3.60;1.73;;;;;;;;;;5025080;28;20209;-73
2023/09/05 10:10:23;;;;;;;2.30;1.90;;;;;;;;;;5024495;28;20186;-73
2023/09/05 10:12:51;;;;;;;5.45;1.73;;;;;;;;;;5021817;28;20190;-74
2023/09/05 10:15:18;;;;;;;1.70;1.40;;;;;;;;;;5014416;28;20237;-73
2023/09/05 10:17:45;;;;;;;2.35;1.38;;;;;;;;;;5025571;28;20300;-73
2023/09/05 10:20:14;;;;;;;3.53;1.70;;;;;;;;;;5016843;28;20190;-73
2023/09/05 10:22:40;;;;;;;3.97;1.77;;;;;;;;;;5024716;28;20605;-72
2023/09/05 10:25:07;;;;;;;2.58;1.63;;;;;;;;;;5018329;28;20595;-73
2023/09/05 10:27:33;;;;;;;3.35;1.63;;;;;;;;;;5024732;28;20655;-73
2023/09/05 10:29:59;;;;;;;3.08;1.60;;;;;;;;;;5029988;28;20272;-73
2023/09/05 10:32:25;;;;;;;2.60;1.63;;;;;;;;;;5022302;28;20274;-72
2023/09/05 10:34:50;;;;;;;4.22;1.80;;;;;;;;;;5018812;28;20273;-73
2023/09/05 10:37:21;;;;;;;2.45;1.50;;;;;;;;;;5019850;28;20197;-73
2023/09/05 10:39:47;;;;;;;3.30;1.70;;;;;;;;;;5025833;28;20217;-73
2023/09/05 10:42:13;;;;;;;3.13;1.45;;;;;;;;;;5022442;28;20186;-73
2023/09/05 10:44:45;;;;;;;2.08;1.60;;;;;;;;;;5014736;28;20238;-73
2023/09/05 10:47:33;;;;;;;3.22;1.70;;;;;;;;;;5013320;28;20215;-73
2023/09/05 10:50:07;;;;;;;3.95;1.77;;;;;;;;;;5033186;28;20191;-72
2023/09/05 10:52:34;;;;;;;1.73;1.60;;;;;;;;;;5023517;28;20248;-73
2023/09/05 10:55:29;;;;;;;3.13;1.80;;;;;;;;;;5008483;28;20261;-72
2023/09/05 10:57:55;;;;;;;3.70;1.60;;;;;;;;;;5041025;28;20565;-73
2023/09/05 11:00:23;;;;;;;1.85;1.60;;;;;;;;;;5024300;28;20671;-73
2023/09/05 11:02:49;;;;;;;2.58;1.38;;;;;;;;;;5025799;28;20183;-73
2023/09/05 11:05:18;;;;;;;2.95;1.63;;;;;;;;;;5022504;28;20548;-73
2023/09/05 11:07:49;;;;;;;4.03;1.50;;;;;;;;;;5044042;28;20205;-73
2023/09/05 11:10:25;;;;;;;2.55;1.58;;;;;;;;;;5039524;28;20546;-72
2023/09/05 11:12:50;;;;;;;3.50;1.40;;;;;;;;;;5019156;28;20189;-73
2023/09/05 11:15:32;;;;;;;5.25;1.60;;;;;;;;;;5025535;28;20186;-73
2023/09/05 11:18:00;;;;;;;2.55;1.60;;;;;;;;;;5013020;28;20616;-72
2023/09/05 11:20:48;;;;;;;2.58;1.50;;;;;;;;;;5030576;28;20214;-73
2023/09/05 11:23:21;;;;;;;3.03;1.42;;;;;;;;;;5015999;28;20187;-73
2023/09/05 11:25:55;;;;;;;3.33;1.45;;;;;;;;;;5028008;28;20210;-73
2023/09/05 11:28:25;;;;;;;5.50;1.60;;;;;;;;;;5019166;28;20187;-72
2023/09/05 11:30:55;;;;;;;2.92;1.30;;;;;;;;;;5024747;28;20665;-73
2023/09/05 11:33:20;;;;;;;2.05;1.38;;;;;;;;;;5028986;28;20190;-73
2023/09/05 11:35:48;;;;;;;1.77;1.30;;;;;;;;;;5022364;28;20194;-73
2023/09/05 11:38:14;;;;;;;1.95;1.30;;;;;;;;;;5027896;28;20178;-73
2023/09/05 11:40:41;;;;;;;2.13;1.50;;;;;;;;;;5026377;28;20681;-72
2023/09/05 11:43:08;;;;;;;3.78;1.50;;;;;;;;;;5028822;28;20249;-74
2023/09/05 11:45:34;;;;;;;3.78;1.50;;;;;;;;;;5021000;28;20223;-74
2023/09/05 11:48:03;;;;;;;3.63;1.38;;;;;;;;;;5018662;28;20189;-74
2023/09/05 11:50:31;;;;;;;7.75;1.70;;;;;;;;;;5018517;28;20257;-74
2023/09/05 11:52:59;;;;;;;4.50;1.70;;;;;;;;;;5020593;28;20596;-74
2023/09/05 11:55:25;;;;;;;5.38;1.50;;;;;;;;;;5017320;28;20202;-74
2023/09/05 11:57:52;;;;;;;2.70;1.67;;;;;;;;;;5031536;28;20567;-75
2023/09/05 12:00:19;;;;;;;2.42;1.80;;;;;;;;;;5007456;28;20219;-74
2023/09/05 12:02:45;;;;;;;2.22;1.60;;;;;;;;;;5025496;28;20193;-74
2023/09/05 12:05:12;;;;;;;2.38;1.50;;;;;;;;;;5015685;28;20214;-74
2023/09/05 12:07:37;;;;;;;3.00;1.60;;;;;;;;;;5013016;28;20643;-74
2023/09/05 12:10:03;;;;;;;2.45;1.60;;;;;;;;;;5017786;28;20249;-74
2023/09/05 12:12:29;;;;;;;5.07;1.80;;;;;;;;;;5009466;28;20629;-74
2023/09/05 12:14:56;;;;;;;1.95;1.48;;;;;;;;;;5014884;28;20242;-73
2023/09/05 12:17:24;;;;;;;2.00;1.50;;;;;;;;;;5021211;28;20214;-72
2023/09/05 12:19:52;;;;;;;1.95;1.70;;;;;;;;;;5012287;28;20196;-73
2023/09/05 12:22:27;;;;;;;3.75;1.65;;;;;;;;;;5026977;28;20273;-73
2023/09/05 12:25:28;;;;;;;3.60;1.80;;;;;;;;;;5013341;28;20237;-73
2023/09/05 12:27:55;;;;;;;1.40;1.30;;;;;;;;;;4980074;28;20261;-73
2023/09/05 12:30:25;;;;;;;3.40;1.60;;;;;;;;;;5013010;28;20206;-73
2023/09/05 12:32:56;;;;;;;4.20;1.65;;;;;;;;;;5009330;28;20638;-73
2023/09/05 12:35:22;;;;;;;3.85;1.60;;;;;;;;;;5013473;28;20269;-73
2023/09/05 12:37:48;;;;;;;2.40;1.90;;;;;;;;;;5024954;28;20280;-73
2023/09/05 12:40:15;;;;;;;2.47;1.63;;;;;;;;;;5016328;28;20270;-73
2023/09/05 12:42:44;;;;;;;3.10;1.60;;;;;;;;;;5013425;28;20564;-73
2023/09/05 12:45:13;;;;;;;1.63;1.52;;;;;;;;;;5022278;28;20680;-73
2023/09/05 12:47:43;;;;;;;3.88;2.10;;;;;;;;;;5013688;28;20568;-73
2023/09/05 12:50:12;;;;;;;2.13;1.60;;;;;;;;;;5015811;28;20426;-73
2023/09/05 12:52:41;;;;;;;3.08;1.90;;;;;;;;;;5021028;28;20555;-73
2023/09/05 12:55:07;;;;;;;2.83;1.55;;;;;;;;;;5008576;28;20280;-73
2023/09/05 12:57:32;;;;;;;2.85;1.50;;;;;;;;;;5022652;28;20611;-74
2023/09/05 12:59:57;;;;;;;2.80;1.67;;;;;;;;;;5021441;28;20211;-74
2023/09/05 13:02:23;;;;;;;5.60;1.95;;;;;;;;;;5023035;28;20190;-73
2023/09/05 13:04:50;;;;;;;1.75;1.50;;;;;;;;;;5022462;28;20233;-73
2023/09/05 13:07:15;;;;;;;1.65;1.42;;;;;;;;;;5009969;28;20190;-73
2023/09/05 13:09:41;;;;;;;1.55;1.38;;;;;;;;;;5023008;28;20805;-73
2023/09/05 13:12:07;;;;;;;2.78;1.40;;;;;;;;;;5008922;28;20191;-73
2023/09/05 13:14:35;;;;;;;2.53;1.48;;;;;;;;;;5022943;28;20264;-74
2023/09/05 13:17:01;;;;;;;2.97;1.42;;;;;;;;;;5020478;28;20233;-73
2023/09/05 13:19:26;;;;;;;3.05;1.65;;;;;;;;;;5046987;28;20193;-73
2023/09/05 13:21:52;;;;;;;4.32;1.50;;;;;;;;;;5031522;28;20186;-74
2023/09/05 13:24:17;;;;;;;2.67;1.67;;;;;;;;;;5032407;28;20276;-73
2023/09/05 13:26:43;;;;;;;2.42;1.50;;;;;;;;;;5030666;28;20693;-74
2023/09/05 13:29:08;;;;;;;1.98;1.40;;;;;;;;;;5019622;28;20252;-72
2023/09/05 13:31:33;;;;;;;1.90;1.73;;;;;;;;;;5031649;28;20221;-73
2023/09/05 13:33:59;;;;;;;2.83;1.58;;;;;;;;;;5030833;28;20545;-73
2023/09/05 13:36:24;;;;;;;2.55;1.77;;;;;;;;;;5033135;28;20256;-73
2023/09/05 13:38:50;;;;;;;1.70;1.52;;;;;;;;;;5046463;28;20190;-73
2023/09/05 13:41:15;;;;;;;1.80;1.70;;;;;;;;;;5015259;28;20706;-74
2023/09/05 13:43:41;;;;;;;2.30;1.92;;;;;;;;;;5020245;28;20268;-75
2023/09/05 13:46:07;;;;;;;1.70;1.60;;;;;;;;;;5021297;28;20233;-73
2023/09/05 13:48:34;;;;;;;2.85;1.70;;;;;;;;;;5032814;28;20186;-74
2023/09/05 13:50:59;;;;;;;4.18;2.00;;;;;;;;;;5026721;28;20222;-74
2023/09/05 13:53:25;;;;;;;4.05;1.67;;;;;;;;;;5026594;28;20214;-74
2023/09/05 13:55:52;;;;;;;4.75;1.77;;;;;;;;;;5038198;28;20189;-74
2023/09/05 13:58:18;;;;;;;1.70;1.60;;;;;;;;;;5025085;28;20600;-74
2023/09/05 14:00:43;;;;;;;2.53;1.83;;;;;;;;;;5024461;28;20213;-74
2023/09/05 14:03:09;;;;;;;1.70;1.60;;;;;;;;;;5030785;28;20541;-74
2023/09/05 14:05:35;;;;;;;2.17;1.63;;;;;;;;;;5020699;28;20705;-74
2023/09/05 14:08:01;;;;;;;2.30;1.83;;;;;;;;;;5030903;28;20259;-74
2023/09/05 14:10:26;;;;;;;1.60;1.50;;;;;;;;;;5023499;28;20195;-73
2023/09/05 14:12:51;;;;;;;8.10;1.85;;;;;;;;;;5026666;28;20250;-73
2023/09/05 14:15:17;;;;;;;2.15;1.75;;;;;;;;;;5022792;28;20190;-73
2023/09/05 14:17:42;;;;;;;3.22;2.00;;;;;;;;;;5016432;28;20290;-73
2023/09/05 14:20:09;;;;;;;2.72;1.98;;;;;;;;;;5028778;28;20677;-73
2023/09/05 14:22:34;;;;;;;1.80;1.70;;;;;;;;;;5024491;28;20603;-73
2023/09/05 14:24:59;;;;;;;6.45;1.83;;;;;;;;;;5030058;28;20213;-73
2023/09/05 14:27:26;;;;;;;4.03;2.05;;;;;;;;;;5017483;28;20195;-73
2023/09/05 14:29:51;;;;;;;3.83;1.80;;;;;;;;;;5014157;28;20187;-72
2023/09/05 14:32:17;;;;;;;3.42;1.80;;;;;;;;;;5018785;28;20198;-74
2023/09/05 14:34:42;;;;;;;1.90;1.60;;;;;;;;;;5014557;28;20190;-76